sensor_id;sensor_type;location;lat;lon;timestamp;pressure;altitude;pressure_sealevel;temperature;humidity
76611;BME280;65503;48.534;9.062;2023-07-13T00:01:31;96978.28;;;22.63;52.88
76611;BME280;65503;48.534;9.062;2023-07-13T00:03:59;96973.53;;;22.60;52.92
76611;BME280;65503;48.534;9.062;2023-07-13T00:06:26;96967.31;;;22.51;53.06
76611;BME280;65503;48.534;9.062;2023-07-13T00:08:59;96966.47;;;22.42;53.15
76611;BME280;65503;48.534;9.062;2023-07-13T00:11:26;96962.94;;;22.33;53.25
76611;BME280;65503;48.534;9.062;2023-07-13T00:13:52;96974.88;;;22.27;52.88
76611;BME280;65503;48.534;9.062;2023-07-13T00:16:19;96972.28;;;22.21;52.69
76611;BME280;65503;48.534;9.062;2023-07-13T00:18:46;96967.56;;;22.18;52.62
76611;BME280;65503;48.534;9.062;2023-07-13T00:21:13;96963.41;;;22.12;52.35
76611;BME280;65503;48.534;9.062;2023-07-13T00:23:41;96975.94;;;22.03;52.82
76611;BME280;65503;48.534;9.062;2023-07-13T00:26:09;96967.78;;;22.08;51.91
76611;BME280;65503;48.534;9.062;2023-07-13T00:28:38;96960.84;;;22.07;51.04
76611;BME280;65503;48.534;9.062;2023-07-13T00:31:08;96967.91;;;22.03;50.45
76611;BME280;65503;48.534;9.062;2023-07-13T00:33:35;96963.53;;;22.07;49.97
76611;BME280;65503;48.534;9.062;2023-07-13T00:36:02;96958.44;;;22.06;49.24
76611;BME280;65503;48.534;9.062;2023-07-13T00:38:29;96963.03;;;22.05;49.47
76611;BME280;65503;48.534;9.062;2023-07-13T00:40:55;96970.59;;;22.03;49.05
76611;BME280;65503;48.534;9.062;2023-07-13T00:43:23;96964.22;;;21.99;48.92
76611;BME280;65503;48.534;9.062;2023-07-13T00:48:20;96970.50;;;21.95;48.81
76611;BME280;65503;48.534;9.062;2023-07-13T00:50:52;96960.03;;;21.93;49.00
76611;BME280;65503;48.534;9.062;2023-07-13T00:53:20;96965.41;;;21.93;49.04
76611;BME280;65503;48.534;9.062;2023-07-13T00:55:51;96970.75;;;21.93;48.75
76611;BME280;65503;48.534;9.062;2023-07-13T00:58:19;96964.44;;;21.89;49.20
76611;BME280;65503;48.534;9.062;2023-07-13T01:00:46;96975.75;;;21.86;49.02
76611;BME280;65503;48.534;9.062;2023-07-13T01:03:15;96975.56;;;21.82;49.17
76611;BME280;65503;48.534;9.062;2023-07-13T01:05:41;96979.31;;;21.81;49.17
76611;BME280;65503;48.534;9.062;2023-07-13T01:08:08;96982.78;;;21.82;49.21
76611;BME280;65503;48.534;9.062;2023-07-13T01:10:35;96975.56;;;21.82;49.51
76611;BME280;65503;48.534;9.062;2023-07-13T01:13:06;96976.16;;;21.79;49.49
76611;BME280;65503;48.534;9.062;2023-07-13T01:18:11;96980.97;;;21.69;50.97
76611;BME280;65503;48.534;9.062;2023-07-13T01:20:39;96973.03;;;21.64;50.89
76611;BME280;65503;48.534;9.062;2023-07-13T01:23:09;96976.28;;;21.61;51.10
76611;BME280;65503;48.534;9.062;2023-07-13T01:25:36;96976.41;;;21.56;51.21
76611;BME280;65503;48.534;9.062;2023-07-13T01:28:07;96973.09;;;21.59;51.46
76611;BME280;65503;48.534;9.062;2023-07-13T01:30:39;96974.00;;;21.54;51.71
76611;BME280;65503;48.534;9.062;2023-07-13T01:33:07;96982.94;;;21.50;51.63
76611;BME280;65503;48.534;9.062;2023-07-13T01:35:36;96978.22;;;21.47;51.34
76611;BME280;65503;48.534;9.062;2023-07-13T01:38:02;96979.97;;;21.37;51.35
76611;BME280;65503;48.534;9.062;2023-07-13T01:40:29;96971.88;;;21.29;51.31
76611;BME280;65503;48.534;9.062;2023-07-13T01:42:57;96979.19;;;21.23;51.57
76611;BME280;65503;48.534;9.062;2023-07-13T01:45:24;96983.53;;;21.19;51.59
76611;BME280;65503;48.534;9.062;2023-07-13T01:47:50;96981.75;;;21.15;51.75
76611;BME280;65503;48.534;9.062;2023-07-13T01:50:17;96984.16;;;21.16;51.70
76611;BME280;65503;48.534;9.062;2023-07-13T01:52:44;96989.56;;;21.11;52.17
76611;BME280;65503;48.534;9.062;2023-07-13T01:55:10;96988.06;;;21.05;52.54
76611;BME280;65503;48.534;9.062;2023-07-13T01:57:37;96989.84;;;20.96;53.16
76611;BME280;65503;48.534;9.062;2023-07-13T02:00:05;96991.09;;;20.85;53.02
76611;BME280;65503;48.534;9.062;2023-07-13T02:02:32;96990.72;;;20.78;53.84
76611;BME280;65503;48.534;9.062;2023-07-13T02:04:58;96989.78;;;20.69;55.14
76611;BME280;65503;48.534;9.062;2023-07-13T02:07:25;96992.53;;;20.63;55.43
76611;BME280;65503;48.534;9.062;2023-07-13T02:09:51;96987.94;;;20.50;54.84
76611;BME280;65503;48.534;9.062;2023-07-13T02:12:18;96998.72;;;20.45;55.96
76611;BME280;65503;48.534;9.062;2023-07-13T02:14:44;96988.47;;;20.34;55.28
76611;BME280;65503;48.534;9.062;2023-07-13T02:17:12;96993.94;;;20.23;55.33
76611;BME280;65503;48.534;9.062;2023-07-13T02:19:39;96994.31;;;20.17;55.06
76611;BME280;65503;48.534;9.062;2023-07-13T02:22:06;96995.47;;;20.11;55.32
76611;BME280;65503;48.534;9.062;2023-07-13T02:24:33;96994.47;;;20.07;55.60
76611;BME280;65503;48.534;9.062;2023-07-13T02:26:59;96992.06;;;20.05;55.96
76611;BME280;65503;48.534;9.062;2023-07-13T02:29:26;97000.41;;;20.04;56.45
76611;BME280;65503;48.534;9.062;2023-07-13T02:31:52;97003.41;;;19.97;56.53
76611;BME280;65503;48.534;9.062;2023-07-13T02:34:18;97007.03;;;19.88;55.98
76611;BME280;65503;48.534;9.062;2023-07-13T02:36:45;97004.47;;;19.77;55.54
76611;BME280;65503;48.534;9.062;2023-07-13T02:39:12;97009.88;;;19.72;56.00
76611;BME280;65503;48.534;9.062;2023-07-13T02:41:39;97007.88;;;19.64;55.84
76611;BME280;65503;48.534;9.062;2023-07-13T02:44:06;97011.63;;;19.63;56.02
76611;BME280;65503;48.534;9.062;2023-07-13T02:46:36;97007.97;;;19.54;56.38
76611;BME280;65503;48.534;9.062;2023-07-13T02:49:03;97010.69;;;19.49;56.58
76611;BME280;65503;48.534;9.062;2023-07-13T02:51:30;97008.34;;;19.48;56.95
76611;BME280;65503;48.534;9.062;2023-07-13T02:53:57;97002.72;;;19.44;56.91
76611;BME280;65503;48.534;9.062;2023-07-13T02:56:26;96994.22;;;19.42;56.85
76611;BME280;65503;48.534;9.062;2023-07-13T02:58:53;97000.13;;;19.39;57.41
76611;BME280;65503;48.534;9.062;2023-07-13T03:01:21;96994.22;;;19.42;57.39
76611;BME280;65503;48.534;9.062;2023-07-13T03:03:49;97000.91;;;19.39;56.81
76611;BME280;65503;48.534;9.062;2023-07-13T03:06:16;97002.78;;;19.39;56.92
76611;BME280;65503;48.534;9.062;2023-07-13T03:08:44;97001.13;;;19.43;57.51
76611;BME280;65503;48.534;9.062;2023-07-13T03:11:13;97007.53;;;19.47;57.93
76611;BME280;65503;48.534;9.062;2023-07-13T03:13:41;97005.38;;;19.49;58.39
76611;BME280;65503;48.534;9.062;2023-07-13T03:16:09;97017.13;;;19.48;57.82
76611;BME280;65503;48.534;9.062;2023-07-13T03:18:37;97014.47;;;19.43;57.92
76611;BME280;65503;48.534;9.062;2023-07-13T03:21:05;97004.34;;;19.45;58.65
76611;BME280;65503;48.534;9.062;2023-07-13T03:23:32;97002.72;;;19.44;58.81
76611;BME280;65503;48.534;9.062;2023-07-13T03:28:32;97007.03;;;19.45;58.79
76611;BME280;65503;48.534;9.062;2023-07-13T03:31:00;97013.88;;;19.51;58.61
76611;BME280;65503;48.534;9.062;2023-07-13T03:33:27;97016.34;;;19.48;58.39
76611;BME280;65503;48.534;9.062;2023-07-13T03:35:54;97018.75;;;19.44;57.98
76611;BME280;65503;48.534;9.062;2023-07-13T03:38:20;97016.94;;;19.39;57.89
76611;BME280;65503;48.534;9.062;2023-07-13T03:40:47;97012.59;;;19.44;57.81
76611;BME280;65503;48.534;9.062;2023-07-13T03:43:14;97014.69;;;19.52;58.37
76611;BME280;65503;48.534;9.062;2023-07-13T03:45:40;97011.16;;;19.56;58.61
76611;BME280;65503;48.534;9.062;2023-07-13T03:48:07;97012.75;;;19.57;58.07
76611;BME280;65503;48.534;9.062;2023-07-13T03:50:34;97021.25;;;19.59;57.31
76611;BME280;65503;48.534;9.062;2023-07-13T03:53:00;97023.66;;;19.61;57.13
76611;BME280;65503;48.534;9.062;2023-07-13T03:55:27;97019.56;;;19.68;57.04
76611;BME280;65503;48.534;9.062;2023-07-13T03:57:58;97029.38;;;19.73;57.89
76611;BME280;65503;48.534;9.062;2023-07-13T04:00:25;97036.13;;;19.65;59.16
76611;BME280;65503;48.534;9.062;2023-07-13T04:02:52;97037.78;;;19.61;59.39
76611;BME280;65503;48.534;9.062;2023-07-13T04:05:19;97041.53;;;19.60;59.18
76611;BME280;65503;48.534;9.062;2023-07-13T04:07:45;97041.78;;;19.64;59.48
76611;BME280;65503;48.534;9.062;2023-07-13T04:10:12;97048.72;;;19.65;60.69
76611;BME280;65503;48.534;9.062;2023-07-13T04:12:38;97044.88;;;19.71;59.85
76611;BME280;65503;48.534;9.062;2023-07-13T04:15:05;97052.06;;;19.75;60.25
76611;BME280;65503;48.534;9.062;2023-07-13T04:17:32;97046.94;;;19.79;59.56
76611;BME280;65503;48.534;9.062;2023-07-13T04:19:59;97050.31;;;19.85;59.80
76611;BME280;65503;48.534;9.062;2023-07-13T04:22:25;97049.19;;;19.91;59.79
76611;BME280;65503;48.534;9.062;2023-07-13T04:24:52;97043.84;;;19.91;59.67
76611;BME280;65503;48.534;9.062;2023-07-13T04:27:18;97050.19;;;19.95;59.78
76611;BME280;65503;48.534;9.062;2023-07-13T04:29:45;97048.03;;;19.97;59.33
76611;BME280;65503;48.534;9.062;2023-07-13T04:32:11;97052.38;;;19.93;59.49
76611;BME280;65503;48.534;9.062;2023-07-13T04:34:38;97054.06;;;19.84;59.68
76611;BME280;65503;48.534;9.062;2023-07-13T04:37:04;97055.16;;;19.83;60.08
76611;BME280;65503;48.534;9.062;2023-07-13T04:39:31;97046.66;;;19.80;59.72
76611;BME280;65503;48.534;9.062;2023-07-13T04:41:58;97050.66;;;19.78;59.95
76611;BME280;65503;48.534;9.062;2023-07-13T04:44:24;97054.66;;;19.80;59.64
76611;BME280;65503;48.534;9.062;2023-07-13T04:46:51;97059.66;;;19.87;60.36
76611;BME280;65503;48.534;9.062;2023-07-13T04:49:17;97059.88;;;19.91;60.21
76611;BME280;65503;48.534;9.062;2023-07-13T04:51:44;97062.47;;;19.96;60.00
76611;BME280;65503;48.534;9.062;2023-07-13T04:54:11;97059.81;;;19.96;60.63
76611;BME280;65503;48.534;9.062;2023-07-13T04:56:37;97058.22;;;19.95;60.23
76611;BME280;65503;48.534;9.062;2023-07-13T04:59:04;97057.13;;;19.96;60.22
76611;BME280;65503;48.534;9.062;2023-07-13T05:01:31;97067.69;;;20.06;59.93
76611;BME280;65503;48.534;9.062;2023-07-13T05:03:58;97072.31;;;20.19;59.41
76611;BME280;65503;48.534;9.062;2023-07-13T05:06:26;97071.34;;;20.34;59.60
76611;BME280;65503;48.534;9.062;2023-07-13T05:08:52;97068.16;;;20.50;59.25
76611;BME280;65503;48.534;9.062;2023-07-13T05:11:19;97081.88;;;20.62;58.25
76611;BME280;65503;48.534;9.062;2023-07-13T05:13:45;97075.97;;;20.66;58.23
76611;BME280;65503;48.534;9.062;2023-07-13T05:16:12;97077.94;;;20.74;57.99
76611;BME280;65503;48.534;9.062;2023-07-13T05:18:39;97082.59;;;20.68;58.56
76611;BME280;65503;48.534;9.062;2023-07-13T05:21:10;97087.56;;;20.75;58.28
76611;BME280;65503;48.534;9.062;2023-07-13T05:23:37;97089.31;;;20.84;57.76
76611;BME280;65503;48.534;9.062;2023-07-13T05:26:04;97094.25;;;20.91;57.28
76611;BME280;65503;48.534;9.062;2023-07-13T05:28:35;97086.09;;;21.01;57.01
76611;BME280;65503;48.534;9.062;2023-07-13T05:31:02;97094.13;;;21.01;56.25
76611;BME280;65503;48.534;9.062;2023-07-13T05:33:28;97090.06;;;21.03;55.23
76611;BME280;65503;48.534;9.062;2023-07-13T05:35:55;97091.41;;;21.20;55.23
76611;BME280;65503;48.534;9.062;2023-07-13T05:38:22;97102.25;;;21.28;54.85
76611;BME280;65503;48.534;9.062;2023-07-13T05:40:49;97109.06;;;21.21;54.50
76611;BME280;65503;48.534;9.062;2023-07-13T05:43:16;97107.00;;;20.99;54.62
76611;BME280;65503;48.534;9.062;2023-07-13T05:45:43;97101.63;;;20.99;54.07
76611;BME280;65503;48.534;9.062;2023-07-13T05:48:09;97114.50;;;20.97;54.65
76611;BME280;65503;48.534;9.062;2023-07-13T05:50:36;97109.75;;;20.94;54.86
76611;BME280;65503;48.534;9.062;2023-07-13T05:53:03;97115.53;;;21.01;55.13
76611;BME280;65503;48.534;9.062;2023-07-13T05:55:29;97115.53;;;21.01;55.26
76611;BME280;65503;48.534;9.062;2023-07-13T05:57:56;97110.47;;;21.18;53.47
76611;BME280;65503;48.534;9.062;2023-07-13T06:00:24;97124.56;;;21.24;54.06
76611;BME280;65503;48.534;9.062;2023-07-13T06:02:51;97127.16;;;21.42;53.69
76611;BME280;65503;48.534;9.062;2023-07-13T06:05:18;97128.56;;;21.54;53.11
76611;BME280;65503;48.534;9.062;2023-07-13T06:07:45;97131.84;;;21.51;53.42
76611;BME280;65503;48.534;9.062;2023-07-13T06:10:11;97127.59;;;21.77;52.44
76611;BME280;65503;48.534;9.062;2023-07-13T06:12:38;97130.56;;;21.89;52.38
76611;BME280;65503;48.534;9.062;2023-07-13T06:15:05;97134.38;;;22.15;51.60
76611;BME280;65503;48.534;9.062;2023-07-13T06:17:31;97131.00;;;23.40;48.56
76611;BME280;65503;48.534;9.062;2023-07-13T06:19:58;97142.88;;;24.92;44.29
76611;BME280;65503;48.534;9.062;2023-07-13T06:22:24;97145.25;;;26.29;40.88
76611;BME280;65503;48.534;9.062;2023-07-13T06:24:51;97154.81;;;27.31;39.48
76611;BME280;65503;48.534;9.062;2023-07-13T06:27:18;97155.41;;;27.93;35.78
76611;BME280;65503;48.534;9.062;2023-07-13T06:29:45;97152.97;;;28.37;35.37
76611;BME280;65503;48.534;9.062;2023-07-13T06:32:12;97154.28;;;28.55;34.99
76611;BME280;65503;48.534;9.062;2023-07-13T06:34:38;97153.81;;;28.65;34.35
76611;BME280;65503;48.534;9.062;2023-07-13T06:37:09;97161.75;;;28.70;34.30
76611;BME280;65503;48.534;9.062;2023-07-13T06:39:36;97160.19;;;28.45;34.41
76611;BME280;65503;48.534;9.062;2023-07-13T06:42:02;97158.75;;;28.23;34.93
76611;BME280;65503;48.534;9.062;2023-07-13T06:44:29;97158.19;;;28.30;34.51
76611;BME280;65503;48.534;9.062;2023-07-13T06:46:55;97156.69;;;29.09;33.86
76611;BME280;65503;48.534;9.062;2023-07-13T06:49:22;97153.03;;;30.04;31.53
76611;BME280;65503;48.534;9.062;2023-07-13T06:51:48;97160.25;;;30.82;30.78
76611;BME280;65503;48.534;9.062;2023-07-13T06:54:15;97157.84;;;31.35;29.97
76611;BME280;65503;48.534;9.062;2023-07-13T06:56:41;97163.59;;;31.30;28.73
76611;BME280;65503;48.534;9.062;2023-07-13T06:59:08;97173.31;;;30.26;29.84
76611;BME280;65503;48.534;9.062;2023-07-13T07:01:35;97169.50;;;30.11;30.07
76611;BME280;65503;48.534;9.062;2023-07-13T07:04:04;97173.78;;;30.12;30.03
76611;BME280;65503;48.534;9.062;2023-07-13T07:06:30;97172.97;;;30.27;29.46
76611;BME280;65503;48.534;9.062;2023-07-13T07:08:57;97170.91;;;30.05;28.09
76611;BME280;65503;48.534;9.062;2023-07-13T07:11:25;97166.06;;;29.98;29.45
76611;BME280;65503;48.534;9.062;2023-07-13T07:13:53;97160.31;;;30.66;28.74
76611;BME280;65503;48.534;9.062;2023-07-13T07:16:20;97166.09;;;31.38;28.18
76611;BME280;65503;48.534;9.062;2023-07-13T07:18:47;97170.22;;;31.93;27.11
76611;BME280;65503;48.534;9.062;2023-07-13T07:21:14;97166.84;;;31.77;25.82
76611;BME280;65503;48.534;9.062;2023-07-13T07:23:42;97170.88;;;31.87;26.64
76611;BME280;65503;48.534;9.062;2023-07-13T07:26:09;97167.50;;;31.93;25.72
76611;BME280;65503;48.534;9.062;2023-07-13T07:28:36;97165.00;;;31.62;26.11
76611;BME280;65503;48.534;9.062;2023-07-13T07:31:05;97159.47;;;32.00;24.52
76611;BME280;65503;48.534;9.062;2023-07-13T07:33:35;97162.44;;;32.41;24.91
76611;BME280;65503;48.534;9.062;2023-07-13T07:36:02;97167.88;;;31.92;24.89
76611;BME280;65503;48.534;9.062;2023-07-13T07:38:32;97163.88;;;31.05;26.00
76611;BME280;65503;48.534;9.062;2023-07-13T07:41:02;97169.72;;;30.53;26.49
76611;BME280;65503;48.534;9.062;2023-07-13T07:43:32;97170.34;;;30.47;26.92
76611;BME280;65503;48.534;9.062;2023-07-13T07:45:59;97175.06;;;30.50;26.96
76611;BME280;65503;48.534;9.062;2023-07-13T07:48:33;97167.44;;;30.90;26.21
76611;BME280;65503;48.534;9.062;2023-07-13T07:51:00;97174.75;;;31.63;26.19
76611;BME280;65503;48.534;9.062;2023-07-13T07:53:26;97170.84;;;32.29;23.96
76611;BME280;65503;48.534;9.062;2023-07-13T07:55:53;97173.75;;;32.17;24.37
76611;BME280;65503;48.534;9.062;2023-07-13T07:58:22;97175.69;;;31.93;24.63
76611;BME280;65503;48.534;9.062;2023-07-13T08:00:51;97177.47;;;31.05;25.48
76611;BME280;65503;48.534;9.062;2023-07-13T08:03:21;97180.72;;;30.95;25.37
76611;BME280;65503;48.534;9.062;2023-07-13T08:05:53;97182.50;;;31.03;24.72
76611;BME280;65503;48.534;9.062;2023-07-13T08:08:22;97180.28;;;30.74;25.38
76611;BME280;65503;48.534;9.062;2023-07-13T08:10:49;97174.22;;;31.15;25.25
76611;BME280;65503;48.534;9.062;2023-07-13T08:13:15;97174.13;;;31.12;25.08
76611;BME280;65503;48.534;9.062;2023-07-13T08:15:42;97181.06;;;31.29;24.85
76611;BME280;65503;48.534;9.062;2023-07-13T08:18:09;97174.16;;;31.54;23.65
76611;BME280;65503;48.534;9.062;2023-07-13T08:20:38;97171.72;;;31.68;23.81
76611;BME280;65503;48.534;9.062;2023-07-13T08:23:05;97173.00;;;31.74;24.08
76611;BME280;65503;48.534;9.062;2023-07-13T08:25:32;97174.34;;;31.61;23.11
76611;BME280;65503;48.534;9.062;2023-07-13T08:27:58;97178.44;;;31.74;23.28
76611;BME280;65503;48.534;9.062;2023-07-13T08:30:25;97165.44;;;31.45;23.34
76611;BME280;65503;48.534;9.062;2023-07-13T08:32:52;97171.59;;;31.42;24.35
76611;BME280;65503;48.534;9.062;2023-07-13T08:35:19;97174.91;;;31.32;23.45
76611;BME280;65503;48.534;9.062;2023-07-13T08:37:46;97171.47;;;31.35;23.83
76611;BME280;65503;48.534;9.062;2023-07-13T08:40:13;97170.31;;;31.16;24.05
76611;BME280;65503;48.534;9.062;2023-07-13T08:42:45;97174.47;;;31.30;23.64
76611;BME280;65503;48.534;9.062;2023-07-13T08:48:05;97171.47;;;31.35;23.21
76611;BME280;65503;48.534;9.062;2023-07-13T08:51:02;97175.19;;;31.27;23.57
76611;BME280;65503;48.534;9.062;2023-07-13T08:53:49;97173.72;;;31.71;22.59
76611;BME280;65503;48.534;9.062;2023-07-13T08:56:21;97165.22;;;31.34;23.60
76611;BME280;65503;48.534;9.062;2023-07-13T08:58:51;97174.88;;;31.70;23.52
76611;BME280;65503;48.534;9.062;2023-07-13T09:04:02;97172.94;;;32.65;21.05
76611;BME280;65503;48.534;9.062;2023-07-13T09:06:49;97175.84;;;32.27;22.83
76611;BME280;65503;48.534;9.062;2023-07-13T09:17:18;97177.00;;;31.80;22.38
76611;BME280;65503;48.534;9.062;2023-07-13T09:19:50;97183.09;;;31.96;22.47
76611;BME280;65503;48.534;9.062;2023-07-13T09:22:21;97178.59;;;32.27;22.78
76611;BME280;65503;48.534;9.062;2023-07-13T09:24:55;97172.78;;;32.06;21.22
76611;BME280;65503;48.534;9.062;2023-07-13T09:27:31;97172.50;;;32.37;21.97
76611;BME280;65503;48.534;9.062;2023-07-13T09:32:43;97173.75;;;32.43;22.58
76611;BME280;65503;48.534;9.062;2023-07-13T09:35:12;97174.09;;;32.91;20.89
76611;BME280;65503;48.534;9.062;2023-07-13T09:37:43;97165.78;;;32.31;21.07
76611;BME280;65503;48.534;9.062;2023-07-13T09:40:26;97168.94;;;32.33;21.36
76611;BME280;65503;48.534;9.062;2023-07-13T09:42:56;97170.09;;;32.32;21.73
76611;BME280;65503;48.534;9.062;2023-07-13T09:45:29;97168.94;;;32.59;19.98
76611;BME280;65503;48.534;9.062;2023-07-13T09:48:04;97166.28;;;32.93;20.43
76611;BME280;65503;48.534;9.062;2023-07-13T09:50:30;97166.94;;;32.83;20.97
76611;BME280;65503;48.534;9.062;2023-07-13T09:52:57;97169.94;;;32.48;20.45
76611;BME280;65503;48.534;9.062;2023-07-13T09:55:35;97175.75;;;31.36;21.63
76611;BME280;65503;48.534;9.062;2023-07-13T09:58:15;97179.13;;;29.93;22.89
76611;BME280;65503;48.534;9.062;2023-07-13T10:00:44;97174.53;;;29.10;24.71
76611;BME280;65503;48.534;9.062;2023-07-13T10:03:21;97164.94;;;29.28;24.38
76611;BME280;65503;48.534;9.062;2023-07-13T10:05:50;97169.28;;;28.77;25.79
76611;BME280;65503;48.534;9.062;2023-07-13T10:08:24;97162.00;;;28.29;25.69
76611;BME280;65503;48.534;9.062;2023-07-13T10:10:53;97165.81;;;28.52;25.71
76611;BME280;65503;48.534;9.062;2023-07-13T10:13:36;97162.53;;;29.11;24.88
76611;BME280;65503;48.534;9.062;2023-07-13T10:16:04;97164.78;;;29.21;23.53
76611;BME280;65503;48.534;9.062;2023-07-13T10:18:43;97168.78;;;28.99;24.40
76611;BME280;65503;48.534;9.062;2023-07-13T10:21:20;97160.72;;;29.15;23.32
76611;BME280;65503;48.534;9.062;2023-07-13T10:24:15;97164.22;;;28.88;23.80
76611;BME280;65503;48.534;9.062;2023-07-13T10:26:50;97157.25;;;29.30;23.99
76611;BME280;65503;48.534;9.062;2023-07-13T10:29:20;97160.81;;;30.06;24.15
76611;BME280;65503;48.534;9.062;2023-07-13T10:31:48;97158.09;;;30.53;23.28
76611;BME280;65503;48.534;9.062;2023-07-13T10:34:16;97150.75;;;30.92;21.97
76611;BME280;65503;48.534;9.062;2023-07-13T10:36:46;97153.88;;;30.39;23.03
76611;BME280;65503;48.534;9.062;2023-07-13T10:39:17;97150.09;;;29.66;23.34
76611;BME280;65503;48.534;9.062;2023-07-13T10:41:47;97144.16;;;29.76;24.61
76611;BME280;65503;48.534;9.062;2023-07-13T10:44:22;97149.44;;;30.00;23.76
76611;BME280;65503;48.534;9.062;2023-07-13T10:46:55;97155.06;;;30.07;24.03
76611;BME280;65503;48.534;9.062;2023-07-13T10:49:24;97154.19;;;29.60;23.93
76611;BME280;65503;48.534;9.062;2023-07-13T10:51:52;97148.69;;;29.56;23.84
76611;BME280;65503;48.534;9.062;2023-07-13T10:54:21;97155.13;;;29.51;25.11
76611;BME280;65503;48.534;9.062;2023-07-13T10:57:15;97156.19;;;29.19;24.49
76611;BME280;65503;48.534;9.062;2023-07-13T10:59:47;97147.00;;;28.96;25.11
76611;BME280;65503;48.534;9.062;2023-07-13T11:02:32;97157.50;;;28.97;25.71
76611;BME280;65503;48.534;9.062;2023-07-13T11:05:16;97136.56;;;29.10;25.56
76611;BME280;65503;48.534;9.062;2023-07-13T11:07:55;97137.59;;;29.77;25.57
76611;BME280;65503;48.534;9.062;2023-07-13T11:10:47;97125.72;;;30.48;25.56
76611;BME280;65503;48.534;9.062;2023-07-13T11:16:43;97133.56;;;30.02;25.38
76611;BME280;65503;48.534;9.062;2023-07-13T11:22:11;97132.13;;;29.17;26.55
76611;BME280;65503;48.534;9.062;2023-07-13T11:25:01;97136.03;;;29.32;25.46
76611;BME280;65503;48.534;9.062;2023-07-13T11:27:41;97124.44;;;29.47;25.38
76611;BME280;65503;48.534;9.062;2023-07-13T11:33:02;97127.38;;;30.36;23.46
76611;BME280;65503;48.534;9.062;2023-07-13T11:35:35;97116.88;;;30.51;22.71
76611;BME280;65503;48.534;9.062;2023-07-13T11:38:02;97109.94;;;30.18;24.04
76611;BME280;65503;48.534;9.062;2023-07-13T11:40:35;97114.50;;;30.49;23.57
76611;BME280;65503;48.534;9.062;2023-07-13T11:43:02;97113.69;;;30.84;24.00
76611;BME280;65503;48.534;9.062;2023-07-13T11:45:28;97111.50;;;31.08;23.46
76611;BME280;65503;48.534;9.062;2023-07-13T11:48:20;97113.00;;;31.48;22.62
76611;BME280;65503;48.534;9.062;2023-07-13T11:50:57;97115.75;;;31.48;21.78
76611;BME280;65503;48.534;9.062;2023-07-13T11:53:27;97102.91;;;31.06;22.30
76611;BME280;65503;48.534;9.062;2023-07-13T11:55:55;97109.59;;;30.93;23.28
76611;BME280;65503;48.534;9.062;2023-07-13T11:58:25;97109.41;;;30.63;22.35
76611;BME280;65503;48.534;9.062;2023-07-13T12:00:52;97108.97;;;30.46;21.50
76611;BME280;65503;48.534;9.062;2023-07-13T12:03:22;97105.13;;;30.47;23.34
76611;BME280;65503;48.534;9.062;2023-07-13T12:06:01;97114.84;;;31.02;22.92
76611;BME280;65503;48.534;9.062;2023-07-13T12:08:29;97103.91;;;30.98;21.91
76611;BME280;65503;48.534;9.062;2023-07-13T12:10:58;97112.91;;;31.22;22.04
76611;BME280;65503;48.534;9.062;2023-07-13T12:13:27;97109.31;;;31.37;21.15
76611;BME280;65503;48.534;9.062;2023-07-13T12:15:56;97111.47;;;31.28;20.70
76611;BME280;65503;48.534;9.062;2023-07-13T12:18:29;97111.56;;;31.54;21.60
76611;BME280;65503;48.534;9.062;2023-07-13T12:20:58;97115.34;;;31.27;21.67
76611;BME280;65503;48.534;9.062;2023-07-13T12:23:35;97109.03;;;31.23;22.05
76611;BME280;65503;48.534;9.062;2023-07-13T12:26:04;97108.66;;;31.43;20.93
76611;BME280;65503;48.534;9.062;2023-07-13T12:28:35;97111.53;;;31.73;21.43
76611;BME280;65503;48.534;9.062;2023-07-13T12:31:04;97106.56;;;31.14;21.02
76611;BME280;65503;48.534;9.062;2023-07-13T12:33:32;97098.91;;;30.81;21.64
76611;BME280;65503;48.534;9.062;2023-07-13T12:36:01;97109.03;;;31.23;20.98
76611;BME280;65503;48.534;9.062;2023-07-13T12:38:30;97101.53;;;30.97;21.06
76611;BME280;65503;48.534;9.062;2023-07-13T12:40:57;97097.84;;;31.47;22.28
76611;BME280;65503;48.534;9.062;2023-07-13T12:43:25;97099.09;;;31.72;20.30
76611;BME280;65503;48.534;9.062;2023-07-13T12:46:02;97097.38;;;31.64;20.48
76611;BME280;65503;48.534;9.062;2023-07-13T12:48:30;97099.00;;;31.91;20.10
76611;BME280;65503;48.534;9.062;2023-07-13T12:51:12;97095.44;;;31.87;19.28
76611;BME280;65503;48.534;9.062;2023-07-13T12:53:48;97104.84;;;31.48;19.43
76611;BME280;65503;48.534;9.062;2023-07-13T12:56:24;97099.59;;;31.16;20.42
76611;BME280;65503;48.534;9.062;2023-07-13T12:58:58;97105.81;;;31.17;19.77
76611;BME280;65503;48.534;9.062;2023-07-13T13:01:28;97103.13;;;31.40;19.71
76611;BME280;65503;48.534;9.062;2023-07-13T13:03:55;97098.41;;;31.14;19.31
76611;BME280;65503;48.534;9.062;2023-07-13T13:06:27;97105.16;;;31.43;21.28
76611;BME280;65503;48.534;9.062;2023-07-13T13:08:58;97081.28;;;30.75;19.53
76611;BME280;65503;48.534;9.062;2023-07-13T13:11:27;97096.84;;;30.59;20.29
76611;BME280;65503;48.534;9.062;2023-07-13T13:13:54;97088.47;;;30.48;21.60
76611;BME280;65503;48.534;9.062;2023-07-13T13:16:31;97096.88;;;30.97;20.96
76611;BME280;65503;48.534;9.062;2023-07-13T13:19:13;97087.50;;;30.56;21.36
76611;BME280;65503;48.534;9.062;2023-07-13T13:21:42;97092.88;;;30.53;21.68
76611;BME280;65503;48.534;9.062;2023-07-13T13:24:14;97094.94;;;30.78;21.37
76611;BME280;65503;48.534;9.062;2023-07-13T13:26:42;97087.16;;;30.77;21.15
76611;BME280;65503;48.534;9.062;2023-07-13T13:29:20;97088.19;;;30.18;21.13
76611;BME280;65503;48.534;9.062;2023-07-13T13:31:47;97092.44;;;30.00;21.23
76611;BME280;65503;48.534;9.062;2023-07-13T13:34:16;97089.38;;;30.36;21.24
76611;BME280;65503;48.534;9.062;2023-07-13T13:36:44;97091.28;;;30.71;21.47
76611;BME280;65503;48.534;9.062;2023-07-13T13:39:24;97093.88;;;31.44;20.90
76611;BME280;65503;48.534;9.062;2023-07-13T13:41:52;97090.75;;;32.11;20.61
76611;BME280;65503;48.534;9.062;2023-07-13T13:44:20;97087.31;;;32.14;19.33